UNKL

Details ICAO UNKL (KJA)
Name YEMELYANOVO
Region Russia
Timezone Asia/Krasnoyarsk (UTC+7.0)
Plans Departing 217
Arriving 175
Stats Elevation 942 ft / 287 m (AMSL)
Location 56.172946° 92.493276°
Runways 1
Magnetic Variation 4.106° E
Sunrise 2018-05-21 21:26:11 UTC / 2018-05-22 04:26:11 Local
Sunset 2018-05-22 14:10:01 UTC / 2018-05-22 21:10:01 Local
Advertisement - Login to hide

Runways

ID Width Length Bearing (true) Bearing (mag) Surface Threshold Offset Overrun Length
11 197 ft / 60 m 12,113 ft / 3,692 m 113.16° 109.05° Asphalt 0 ft / 0 m 235 ft / 72 m
29 197 ft / 60 m 12,113 ft / 3,692 m 293.21° 289.10° Asphalt 0 ft / 0 m 215 ft / 66 m

Map

Weather


0- 5 10 15 20 25 30 35+ Temperature / ° C

Clouds and Precipitation
Forecast for 2018-05-21 18:00 UTC. Updated 5 hours ago

Ground ~20,000 ft ~40,000 ft Winds

METAR

UNKL 212230Z 22006MPS 9999 -SHRA SCT026CB 10/07 Q1004 WS R29 R29/290055 NOSIG RMK QFE727

TAF

TAF UNKL 212000Z 2121/2221 22005G12MPS 9999 BKN020CB TEMPO 2121/2203 23011G18MPS 3100 -SHRA FEW005 BKN013CB FM220300 26007G15MPS 9000 -SHRA FEW007 BKN013CB TEMPO 2203/2209 27013G19MPS 3100 -SHRA FEW006 BKN013CB TEMPO 2209/2221 3100 -SHRA BECMG 2212/2214 28003G10MPS

Frequencies

Tower 121.90 MHz KRASNOYARSK TAXIING
Approach 127.70 MHz KRASNOYARSK APP
Approach 129.00 MHz KRASNOYARSK APP
Tower 118.30 MHz KRASNOYARSK TWR
Approach 124.00 MHz KRASNOYARSK APP
Warning: Do not use this data for real-world aviation or navigation. No guarantee of current accuracy is given.